createdAt,value
2019-05-15T00:02:12.189Z,70.07
2019-05-15T00:04:42.794Z,70.60
2019-05-15T00:37:53.074Z,75.35
2019-05-15T00:41:01.647Z,75.90
2019-05-15T00:43:52.033Z,76.12
2019-05-15T00:46:41.294Z,76.12
2019-05-15T00:49:11.588Z,76.20
2019-05-15T00:52:01.134Z,76.24
2019-05-15T00:54:50.526Z,77.08
2019-05-15T00:57:40.393Z,77.23
2019-05-15T01:00:59.031Z,77.78
2019-05-15T01:03:28.557Z,78.25
2019-05-15T01:05:59.172Z,77.72
2019-05-15T01:08:29.439Z,77.89
2019-05-15T01:11:19.293Z,78.03
2019-05-15T01:13:49.567Z,78.30
2019-05-15T01:16:39.395Z,78.43
2019-05-15T01:19:30.708Z,78.58
2019-05-15T01:22:20.263Z,78.48
2019-05-15T01:25:29.795Z,78.95
2019-05-15T01:28:19.421Z,79.44
2019-05-15T01:31:08.844Z,80.03
2019-05-15T01:37:08.758Z,79.80
2019-05-15T01:39:58.267Z,80.50
2019-05-15T01:42:49.869Z,80.56
2019-05-15T01:45:19.640Z,80.81
2019-05-15T01:47:50.190Z,81.30
2019-05-15T01:50:39.508Z,81.61
2019-05-15T01:53:31.407Z,81.73
2019-05-15T01:56:20.723Z,82.02
2019-05-15T01:59:10.223Z,82.04
2019-05-15T02:01:59.509Z,82.23
2019-05-15T02:04:48.870Z,82.48
2019-05-15T02:07:38.989Z,82.73
2019-05-15T02:10:29.436Z,83.33
2019-05-15T02:13:19.111Z,83.83
2019-05-15T02:15:49.362Z,83.76
2019-05-15T02:18:39.369Z,83.81
2019-05-15T02:21:29.933Z,84.04
2019-05-15T02:24:19.497Z,84.65
2019-05-15T02:27:09.113Z,85.21
2019-05-15T02:29:40.779Z,85.27
2019-05-15T02:32:30.401Z,85.55
2019-05-15T02:35:19.767Z,85.50
2019-05-15T02:37:50.104Z,85.73
2019-05-15T02:40:40.439Z,85.37
2019-05-15T02:43:11.362Z,85.64
2019-05-15T02:49:12.148Z,86.06
2019-05-15T02:51:42.402Z,86.79
2019-05-15T02:54:31.739Z,87.30
2019-05-15T02:57:21.043Z,87.48
2019-05-15T02:59:51.318Z,87.35
2019-05-15T03:02:41.591Z,87.55
2019-05-15T03:05:12.604Z,87.24
2019-05-15T03:08:02.173Z,87.13
2019-05-15T03:10:51.486Z,87.28
2019-05-15T03:13:22.067Z,87.47
2019-05-15T03:16:11.371Z,87.83
2019-05-15T03:19:00.806Z,87.75
2019-05-15T03:21:31.106Z,88.17
2019-05-15T03:24:01.680Z,88.12
2019-05-15T03:26:32.063Z,88.28
2019-05-15T03:29:02.327Z,87.84
2019-05-15T03:32:07.340Z,87.73
2019-05-15T03:34:47.154Z,88.02
2019-05-15T03:37:15.053Z,87.72
2019-05-15T03:39:48.486Z,88.38
2019-05-15T03:42:39.425Z,88.67
2019-05-15T03:45:49.375Z,88.99
2019-05-15T03:48:30.952Z,88.87
2019-05-15T03:51:01.247Z,89.17
2019-05-15T03:53:50.592Z,89.15
2019-05-15T03:56:39.841Z,88.80
2019-05-15T03:59:10.149Z,88.97
2019-05-15T04:01:43.733Z,89.08
2019-05-15T04:04:12.709Z,89.49
2019-05-15T04:07:01.815Z,89.63
2019-05-15T04:09:32.097Z,89.58
2019-05-15T04:12:21.414Z,89.21
2019-05-15T04:15:10.933Z,89.77
2019-05-15T04:18:00.690Z,89.69
2019-05-15T04:20:50.163Z,89.75
2019-05-15T04:23:39.856Z,90.12
2019-05-15T04:26:49.386Z,91.78
2019-05-15T04:29:43.066Z,90.45
2019-05-15T04:32:32.342Z,89.68
2019-05-15T04:35:21.929Z,89.68
2019-05-15T04:38:11.262Z,89.29
2019-05-15T04:40:41.485Z,89.20
2019-05-15T04:43:12.271Z,88.82
2019-05-15T04:45:59.128Z,88.55
2019-05-15T04:48:19.741Z,88.24
2019-05-15T04:54:02.130Z,87.73
2019-05-15T04:56:51.411Z,87.39
2019-05-15T04:59:40.956Z,87.24
2019-05-15T05:02:16.870Z,87.99
2019-05-15T05:05:02.522Z,88.05
2019-05-15T05:07:51.832Z,87.72
2019-05-15T05:10:24.825Z,87.32
2019-05-15T05:12:59.006Z,87.79
2019-05-15T05:15:49.973Z,88.24
2019-05-15T05:18:41.842Z,87.78
2019-05-15T05:21:32.821Z,85.36
2019-05-15T05:24:22.225Z,84.22
2019-05-15T05:26:52.651Z,83.37
2019-05-15T05:29:22.996Z,81.32
2019-05-15T05:31:54.511Z,80.32
2019-05-15T05:34:31.229Z,80.18
2019-05-15T05:37:02.987Z,79.33
2019-05-15T05:39:35.150Z,77.79
2019-05-15T05:42:08.723Z,75.58
2019-05-15T05:45:02.136Z,71.77
2019-05-15T05:47:43.491Z,70.50
2019-05-15T05:50:25.023Z,69.40
2019-05-15T05:52:57.941Z,66.71
2019-05-15T05:55:53.180Z,66.90
2019-05-15T05:58:24.239Z,65.50
2019-05-15T06:01:13.813Z,64.78
2019-05-15T06:03:44.113Z,65.38
2019-05-15T06:06:34.692Z,64.73
2019-05-15T06:09:28.844Z,63.00
2019-05-15T06:11:59.120Z,63.29
2019-05-15T06:14:49.067Z,64.61
2019-05-15T06:17:39.474Z,62.39
2019-05-15T06:20:31.141Z,61.85
2019-05-15T06:23:03.044Z,60.25
2019-05-15T06:25:34.404Z,60.14
2019-05-15T06:28:05.183Z,60.89
2019-05-15T06:30:33.157Z,60.77
2019-05-15T06:36:17.872Z,58.98
2019-05-15T06:38:48.457Z,59.54
2019-05-15T06:41:43.061Z,58.42
2019-05-15T06:44:48.360Z,57.84
2019-05-15T06:47:31.808Z,56.40
2019-05-15T06:50:17.930Z,55.83
2019-05-15T06:53:00.041Z,55.91
2019-05-15T06:55:38.806Z,55.94
2019-05-15T06:58:09.463Z,55.57
2019-05-15T07:00:48.436Z,54.54
2019-05-15T07:03:21.481Z,54.62
2019-05-15T07:05:45.917Z,54.06
2019-05-15T07:08:35.245Z,53.10
2019-05-15T07:11:05.684Z,53.13
2019-05-15T07:13:39.295Z,51.90
2019-05-15T07:16:29.256Z,52.62
2019-05-15T07:19:10.652Z,53.19
2019-05-15T07:21:45.268Z,51.36
2019-05-15T07:24:15.505Z,52.61
2019-05-15T07:26:48.351Z,51.02
2019-05-15T07:31:58.621Z,51.18
2019-05-15T07:34:49.891Z,50.42
2019-05-15T07:37:22.717Z,49.69
2019-05-15T07:39:53.060Z,50.37
2019-05-15T07:42:25.652Z,49.78
2019-05-15T07:44:58.634Z,47.89
2019-05-15T07:47:40.863Z,49.15
2019-05-15T07:50:22.154Z,47.25
2019-05-15T07:53:08.804Z,47.49
2019-05-15T07:55:39.561Z,47.10
2019-05-15T07:58:31.840Z,46.85
2019-05-15T08:01:23.152Z,45.61
2019-05-15T08:04:01.658Z,46.65
2019-05-15T08:06:29.895Z,45.75
2019-05-15T08:09:00.119Z,46.42
2019-05-15T08:11:53.754Z,43.79
2019-05-15T08:17:22.326Z,43.54
2019-05-15T08:20:12.355Z,45.41
2019-05-15T08:23:03.971Z,43.49
2019-05-15T08:28:28.745Z,41.48
2019-05-15T08:31:12.544Z,39.26
2019-05-15T08:34:21.092Z,36.61
2019-05-15T08:36:51.933Z,34.89
2019-05-15T08:39:22.221Z,33.03
2019-05-15T08:41:58.485Z,32.21
2019-05-15T08:44:48.968Z,29.94
2019-05-15T08:47:23.481Z,31.78
2019-05-15T08:50:09.010Z,31.07
2019-05-15T08:52:58.781Z,29.51
2019-05-15T08:55:49.953Z,28.64
2019-05-15T08:58:20.856Z,28.29
2019-05-15T09:03:44.134Z,28.66
2019-05-15T09:06:41.004Z,31.19
2019-05-15T09:12:08.105Z,28.09
2019-05-15T09:17:18.168Z,27.11
2019-05-15T09:19:49.145Z,24.91
2019-05-15T09:22:38.503Z,25.75
2019-05-15T09:25:28.799Z,25.53
2019-05-15T09:28:19.158Z,23.50
2019-05-15T09:30:51.514Z,24.27
2019-05-15T09:33:28.624Z,23.99
2019-05-15T09:35:59.012Z,23.53
2019-05-15T09:38:49.740Z,24.29
2019-05-15T09:41:38.898Z,23.77
2019-05-15T09:44:28.499Z,23.70
2019-05-15T09:46:58.975Z,22.96
2019-05-15T09:49:44.227Z,23.89
2019-05-15T09:55:10.710Z,21.04
2019-05-15T09:57:55.309Z,22.29
2019-05-15T10:00:35.589Z,23.78
2019-05-15T10:09:38.917Z,29.99
2019-05-15T10:12:59.468Z,29.66
2019-05-15T10:15:51.908Z,28.75
2019-05-15T10:19:18.696Z,26.04
2019-05-15T10:22:09.691Z,27.43
2019-05-15T10:24:59.161Z,27.32
2019-05-15T10:27:31.160Z,26.52
2019-05-15T10:30:04.659Z,25.75
2019-05-15T10:32:53.964Z,27.03
2019-05-15T10:35:31.820Z,28.47
2019-05-15T10:44:20.241Z,29.49
2019-05-15T10:46:52.717Z,31.52
2019-05-15T10:49:33.938Z,31.34
2019-05-15T10:52:29.104Z,31.21
2019-05-15T10:55:01.717Z,32.74
2019-05-15T10:58:16.719Z,29.56
2019-05-15T11:03:00.091Z,32.08
2019-05-15T11:05:51.235Z,31.67
2019-05-15T11:08:21.698Z,31.43
2019-05-15T11:11:11.315Z,29.86
2019-05-15T11:13:41.605Z,30.29
2019-05-15T11:19:15.929Z,32.35
2019-05-15T11:22:05.213Z,32.12
2019-05-15T11:25:09.938Z,31.72
2019-05-15T11:28:08.359Z,32.57
2019-05-15T11:31:00.700Z,29.51
2019-05-15T11:37:01.841Z,32.07
2019-05-15T11:40:13.445Z,30.76
2019-05-15T11:43:23.157Z,32.63
2019-05-15T11:45:59.610Z,31.09
2019-05-15T11:51:34.106Z,32.16
2019-05-15T11:54:15.948Z,32.54
2019-05-15T11:56:55.709Z,33.25
2019-05-15T11:59:54.853Z,33.56
2019-05-15T12:02:20.576Z,30.86
2019-05-15T12:05:01.622Z,31.37
2019-05-15T12:07:34.844Z,31.31
2019-05-15T12:10:05.243Z,31.25
2019-05-15T12:15:44.928Z,31.11
2019-05-15T12:18:34.247Z,32.23
2019-05-15T12:21:19.724Z,30.41
2019-05-15T12:23:38.758Z,30.42
2019-05-15T12:26:29.162Z,31.65
2019-05-15T12:32:35.549Z,32.65
2019-05-15T12:35:20.469Z,30.36
2019-05-15T12:37:51.009Z,29.21
2019-05-15T13:01:25.968Z,30.41
2019-05-15T13:04:20.243Z,28.66
2019-05-15T13:07:16.389Z,28.64
2019-05-15T13:10:03.025Z,28.14
2019-05-15T13:16:31.288Z,31.85
2019-05-15T13:18:54.443Z,30.45
2019-05-15T13:21:50.889Z,25.99
2019-05-15T13:24:19.295Z,23.42
2019-05-15T13:27:09.495Z,24.58
2019-05-15T13:29:40.058Z,24.32
2019-05-15T13:32:31.974Z,25.62
2019-05-15T13:35:23.113Z,29.13
2019-05-15T13:38:18.024Z,28.66
2019-05-15T13:41:11.654Z,29.74
2019-05-15T13:44:03.769Z,30.91
2019-05-15T13:46:52.993Z,31.89
2019-05-15T13:49:35.178Z,33.30
2019-05-15T13:52:08.344Z,33.61
2019-05-15T13:54:59.785Z,31.03
2019-05-15T13:57:50.482Z,31.96
2019-05-15T14:07:02.925Z,31.28
2019-05-15T14:09:54.564Z,31.18
2019-05-15T14:12:25.107Z,30.26
2019-05-15T14:15:17.805Z,29.73
2019-05-15T14:18:08.714Z,30.77
2019-05-15T14:20:41.963Z,30.30
2019-05-15T14:26:29.933Z,28.25
2019-05-15T14:29:00.242Z,28.21
2019-05-15T14:32:08.453Z,29.75
2019-05-15T14:34:38.849Z,30.11
2019-05-15T14:37:30.791Z,31.41
2019-05-15T14:40:20.213Z,32.14
2019-05-15T14:43:09.536Z,32.71
2019-05-15T14:45:59.109Z,32.73
2019-05-15T14:48:49.102Z,30.98
2019-05-15T14:51:40.783Z,27.88
2019-05-15T14:57:23.911Z,20.73
2019-05-15T15:00:44.506Z,21.69
2019-05-15T15:03:02.350Z,24.45
2019-05-15T15:08:29.206Z,22.54
2019-05-15T15:11:17.892Z,21.45
2019-05-15T15:13:57.894Z,24.54
2019-05-15T15:16:29.281Z,27.13
2019-05-15T15:19:00.954Z,29.21
2019-05-15T15:21:50.528Z,31.91
2019-05-15T15:24:23.941Z,31.34
2019-05-15T15:27:08.293Z,29.79
2019-05-15T15:29:40.753Z,26.21
2019-05-15T15:32:31.275Z,25.72
2019-05-15T15:35:04.031Z,29.85
2019-05-15T15:37:53.613Z,30.11
2019-05-15T15:40:28.295Z,30.66
2019-05-15T15:42:59.216Z,31.36
2019-05-15T15:45:29.649Z,33.88
2019-05-15T15:48:19.827Z,33.62
2019-05-15T15:51:02.205Z,34.49
2019-05-15T15:53:32.944Z,34.62
2019-05-15T15:56:23.921Z,35.03
2019-05-15T15:58:59.705Z,37.48
2019-05-15T16:01:31.617Z,35.65
2019-05-15T16:04:21.259Z,36.78
2019-05-15T16:07:38.035Z,37.55
2019-05-15T16:09:48.352Z,37.45
2019-05-15T16:12:58.324Z,36.67
2019-05-15T16:15:52.065Z,37.23
2019-05-15T16:18:24.430Z,37.08
2019-05-15T16:21:14.146Z,37.49
2019-05-15T16:23:45.474Z,37.14
2019-05-15T16:26:22.475Z,37.56
2019-05-15T16:29:13.104Z,38.90
2019-05-15T16:32:02.729Z,38.83
2019-05-15T16:35:10.912Z,37.85
2019-05-15T16:37:41.285Z,38.60
2019-05-15T16:40:31.511Z,38.17
2019-05-15T16:43:20.909Z,38.72
2019-05-15T16:45:52.202Z,39.12
2019-05-15T16:48:23.142Z,40.02
2019-05-15T16:51:04.491Z,39.31
2019-05-15T16:53:35.191Z,39.07
2019-05-15T16:56:05.813Z,39.35
2019-05-15T16:58:55.169Z,40.36
2019-05-15T17:01:25.453Z,39.63
2019-05-15T17:03:55.897Z,39.36
2019-05-15T17:06:30.464Z,39.44
2019-05-15T17:09:28.731Z,39.49
2019-05-15T17:12:33.088Z,40.45
2019-05-15T17:15:03.820Z,40.04
2019-05-15T17:18:29.626Z,40.49
2019-05-15T17:20:48.473Z,39.97
2019-05-15T17:23:19.099Z,39.88
2019-05-15T17:25:49.696Z,40.00
2019-05-15T17:31:32.481Z,40.66
2019-05-15T17:34:06.108Z,40.58
2019-05-15T17:36:50.728Z,40.29
2019-05-15T17:39:34.635Z,40.04
2019-05-15T17:42:38.929Z,39.70
2019-05-15T17:45:48.117Z,39.64
2019-05-15T17:48:33.426Z,39.76
2019-05-15T17:51:14.631Z,39.60
2019-05-15T17:54:03.916Z,40.98
2019-05-15T17:56:39.231Z,42.64
2019-05-15T17:59:32.693Z,43.04
2019-05-15T18:06:14.528Z,42.49
2019-05-15T18:09:04.825Z,42.92
2019-05-15T18:11:54.417Z,39.98
2019-05-15T18:14:48.348Z,40.27
2019-05-15T18:17:45.151Z,38.48
2019-05-15T18:20:38.434Z,38.90
2019-05-15T18:23:27.475Z,38.42
2019-05-15T18:26:18.678Z,38.15
2019-05-15T18:28:50.867Z,38.39
2019-05-15T18:31:21.860Z,38.60
2019-05-15T18:33:59.204Z,38.85
2019-05-15T18:37:14.527Z,38.88
2019-05-15T18:40:06.175Z,39.54
2019-05-15T18:42:38.902Z,39.31
2019-05-15T18:45:13.833Z,39.49
2019-05-15T18:48:04.354Z,39.99
2019-05-15T18:50:44.290Z,39.98
2019-05-15T18:53:18.065Z,40.41
2019-05-15T18:56:08.950Z,41.28
2019-05-15T19:01:50.425Z,42.11
2019-05-15T19:04:23.084Z,41.79
2019-05-15T19:07:18.123Z,42.59
2019-05-15T19:09:48.242Z,42.76
2019-05-15T19:12:38.849Z,43.13
2019-05-15T19:15:29.617Z,43.13
2019-05-15T19:18:01.054Z,43.27
2019-05-15T19:20:34.103Z,43.27
2019-05-15T19:23:23.856Z,43.22
2019-05-15T19:26:18.003Z,43.58
2019-05-15T19:29:08.311Z,43.50
2019-05-15T19:31:59.880Z,43.35
2019-05-15T19:34:33.432Z,43.69
2019-05-15T19:37:23.596Z,43.48
2019-05-15T19:43:23.643Z,43.63
2019-05-15T19:46:13.024Z,44.24
2019-05-15T19:49:02.731Z,44.89
2019-05-15T19:51:38.127Z,44.63
2019-05-15T19:54:09.665Z,45.10
2019-05-15T19:59:34.212Z,44.97
2019-05-15T20:02:31.215Z,45.23
2019-05-15T20:08:38.514Z,44.78
2019-05-15T20:11:18.387Z,45.10
2019-05-15T20:14:05.881Z,45.65
2019-05-15T20:19:48.707Z,45.87
2019-05-15T20:22:41.012Z,45.13
2019-05-15T20:25:31.423Z,46.45
2019-05-15T20:28:04.079Z,46.64
2019-05-15T20:31:18.957Z,45.57
2019-05-15T20:34:29.183Z,45.48
2019-05-15T20:36:59.652Z,45.63
2019-05-15T20:39:30.423Z,46.15
2019-05-15T20:45:12.439Z,47.41
2019-05-15T20:47:42.449Z,47.18
2019-05-15T20:53:57.997Z,47.42
2019-05-15T20:56:48.999Z,47.83
2019-05-15T20:59:20.977Z,48.04
2019-05-15T21:02:38.027Z,48.25
2019-05-15T21:05:29.870Z,48.30
2019-05-15T21:08:00.421Z,49.00
2019-05-15T21:10:49.846Z,48.65
2019-05-15T21:13:20.351Z,49.08
2019-05-15T21:16:10.390Z,49.00
2019-05-15T21:18:54.302Z,49.58
2019-05-15T21:25:19.129Z,50.22
2019-05-15T21:28:10.593Z,50.71
2019-05-15T21:31:02.731Z,51.32
2019-05-15T21:33:33.125Z,51.66
2019-05-15T21:36:04.012Z,52.07
2019-05-15T21:38:53.303Z,52.88
2019-05-15T21:41:25.308Z,53.52
2019-05-15T21:44:14.880Z,53.51
2019-05-15T21:47:04.484Z,56.05
2019-05-15T21:49:35.073Z,55.23
2019-05-15T21:52:18.490Z,55.70
2019-05-15T21:55:03.171Z,56.23
2019-05-15T21:57:44.829Z,56.98
2019-05-15T22:00:38.402Z,57.96
2019-05-15T22:03:28.801Z,58.12
2019-05-15T22:06:39.790Z,58.78
2019-05-15T22:09:29.247Z,59.41
2019-05-15T22:12:01.166Z,59.70
2019-05-15T22:14:54.132Z,60.53
2019-05-15T22:17:49.036Z,60.70
2019-05-15T22:20:38.958Z,61.34
2019-05-15T22:23:30.508Z,62.07
2019-05-15T22:26:00.858Z,62.03
2019-05-15T22:28:32.512Z,62.46
2019-05-15T22:31:39.685Z,62.58
2019-05-15T22:33:58.508Z,62.68
2019-05-15T22:36:29.241Z,63.43
2019-05-15T22:38:59.576Z,62.87
2019-05-15T22:41:49.089Z,63.61
2019-05-15T22:44:20.622Z,64.13
2019-05-15T22:46:58.012Z,64.45
2019-05-15T22:49:26.002Z,64.69
2019-05-15T22:51:58.150Z,64.65
2019-05-15T22:54:49.550Z,65.65
2019-05-15T22:57:20.044Z,65.98
2019-05-15T22:59:50.328Z,66.35
2019-05-15T23:02:23.701Z,66.28
2019-05-15T23:05:23.868Z,66.66
2019-05-15T23:08:04.303Z,66.81
2019-05-15T23:10:55.242Z,66.90
2019-05-15T23:13:48.188Z,67.09
2019-05-15T23:16:51.245Z,67.33
2019-05-15T23:19:11.873Z,67.88
2019-05-15T23:21:42.389Z,68.10
2019-05-15T23:24:31.666Z,68.42
2019-05-15T23:27:21.298Z,68.84
2019-05-15T23:29:51.526Z,69.67
2019-05-15T23:32:21.844Z,69.98
2019-05-15T23:34:52.072Z,70.00
2019-05-15T23:40:30.939Z,70.49
2019-05-15T23:43:21.265Z,70.57
2019-05-15T23:46:10.551Z,70.67
2019-05-15T23:49:00.332Z,71.00
2019-05-15T23:51:42.045Z,71.78
2019-05-15T23:54:23.997Z,72.20
2019-05-15T23:57:15.052Z,72.70
2019-05-15T23:59:56.171Z,73.29
